Time;durP1;ratioP1;P1;durP2;ratioP2;P2;SDS_P1;SDS_P2;PMS_P1;PMS_P2;Temp;Humidity;BMP_temperature;BMP_pressure;BME280_temperature;BME280_humidity;BME280_pressure;Samples;Min_cycle;Max_cycle;Signal;HPM_P1;HPM_P2
2021/08/12 00:03:56;;;;;;;3.73;3.43;;;24.00;33.80;;;;;;10351796;28;20231;-79
2021/08/12 00:08:59;;;;;;;3.80;3.50;;;23.90;34.10;;;;;;10352096;28;20816;-78
2021/08/12 00:14:02;;;;;;;3.93;3.60;;;23.90;34.00;;;;;;10350088;28;20241;-78
2021/08/12 00:19:11;;;;;;;3.87;3.23;;;23.80;33.90;;;;;;10349655;28;20234;-78
2021/08/12 00:24:15;;;;;;;4.47;3.60;;;23.70;34.30;;;;;;10345685;28;20293;-79
2021/08/12 00:29:18;;;;;;;3.67;3.20;;;23.60;34.10;;;;;;10348329;28;20238;-79
2021/08/12 00:34:22;;;;;;;3.40;3.10;;;23.50;34.40;;;;;;10348047;28;20222;-78
2021/08/12 00:39:26;;;;;;;3.70;3.40;;;23.40;34.80;;;;;;10349524;28;20966;-78
2021/08/12 00:44:29;;;;;;;5.07;3.30;;;23.30;34.50;;;;;;10352601;28;20234;-78
2021/08/12 00:49:37;;;;;;;3.87;3.53;;;23.30;34.60;;;;;;10353566;28;20240;-78
2021/08/12 00:54:41;;;;;;;6.70;3.40;;;23.20;35.10;;;;;;10346529;28;20234;-78
2021/08/12 00:59:44;;;;;;;4.87;3.40;;;23.10;35.00;;;;;;10349764;28;20257;-79
2021/08/12 01:04:50;;;;;;;3.30;3.00;;;23.00;35.00;;;;;;10355012;28;20615;-78
2021/08/12 01:09:59;;;;;;;3.97;3.23;;;22.90;35.50;;;;;;10349045;28;20226;-79
2021/08/12 01:15:06;;;;;;;3.77;3.47;;;22.80;35.50;;;;;;10351894;28;20714;-78
2021/08/12 01:20:46;;;;;;;3.30;3.00;;;22.80;35.80;;;;;;10350811;28;20261;-78
2021/08/12 01:25:51;;;;;;;3.80;3.50;;;22.80;35.70;;;;;;10348446;28;20238;-78
2021/08/12 01:31:13;;;;;;;4.50;3.80;;;22.80;35.70;;;;;;10354344;28;20234;-79
2021/08/12 01:36:20;;;;;;;7.20;3.70;;;22.70;36.20;;;;;;10352804;28;20578;-78
2021/08/12 01:41:26;;;;;;;3.50;3.20;;;22.70;36.30;;;;;;10353530;28;20241;-78
2021/08/12 01:46:31;;;;;;;3.40;3.10;;;22.60;35.80;;;;;;10358653;28;20234;-78
2021/08/12 01:51:37;;;;;;;4.10;3.70;;;22.50;35.70;;;;;;10355028;28;20234;-78
2021/08/12 01:56:43;;;;;;;4.23;3.40;;;22.40;36.50;;;;;;10359383;28;20249;-78
2021/08/12 02:01:47;;;;;;;5.13;3.53;;;22.40;36.40;;;;;;10354291;28;20234;-78
2021/08/12 02:06:52;;;;;;;4.03;3.70;;;22.40;36.30;;;;;;10349353;28;20242;-78
2021/08/12 02:11:56;;;;;;;3.60;3.30;;;22.30;36.80;;;;;;10352722;28;20230;-78
2021/08/12 02:16:59;;;;;;;3.30;3.00;;;22.30;36.30;;;;;;10353211;28;20598;-79
2021/08/12 02:22:09;;;;;;;4.00;3.60;;;22.30;36.50;;;;;;10349905;28;20635;-78
2021/08/12 02:27:16;;;;;;;3.90;3.37;;;22.30;37.50;;;;;;10353608;28;20238;-79
2021/08/12 02:32:21;;;;;;;3.50;3.20;;;22.30;37.30;;;;;;10355282;28;20230;-78
2021/08/12 02:37:27;;;;;;;3.93;3.53;;;22.20;36.90;;;;;;10353201;28;20238;-79
2021/08/12 02:42:31;;;;;;;4.50;4.10;;;22.20;37.40;;;;;;10355520;28;20230;-78
2021/08/12 02:47:35;;;;;;;4.00;3.70;;;22.10;36.70;;;;;;10358091;28;20235;-79
2021/08/12 02:52:41;;;;;;;3.93;3.60;;;22.10;38.00;;;;;;10354670;28;20239;-78
2021/08/12 02:57:45;;;;;;;4.37;3.70;;;21.90;37.60;;;;;;10354115;28;20230;-78
2021/08/12 03:02:51;;;;;;;4.03;3.33;;;21.90;37.30;;;;;;10356916;28;20234;-78
2021/08/12 03:07:56;;;;;;;4.20;3.80;;;21.90;37.50;;;;;;10316487;28;1152609;-79
2021/08/12 03:13:01;;;;;;;4.60;3.67;;;21.80;38.10;;;;;;10361268;28;20230;-79
2021/08/12 03:18:05;;;;;;;9.23;3.60;;;21.80;38.10;;;;;;10357436;28;20233;-78
2021/08/12 03:23:10;;;;;;;3.90;3.50;;;21.70;37.40;;;;;;10343292;28;20235;-79
2021/08/12 03:28:13;;;;;;;3.37;3.07;;;21.70;38.00;;;;;;10348184;28;20245;-78
2021/08/12 03:33:17;;;;;;;4.50;3.80;;;21.70;37.30;;;;;;10356111;28;20235;-78
2021/08/12 03:38:22;;;;;;;3.77;3.10;;;21.70;37.50;;;;;;10345649;28;20230;-79
2021/08/12 03:43:25;;;;;;;3.67;3.37;;;21.60;37.90;;;;;;10348711;28;20613;-79
2021/08/12 03:48:28;;;;;;;3.87;3.27;;;21.60;37.80;;;;;;10355928;28;20234;-78
2021/08/12 03:53:32;;;;;;;3.50;3.20;;;21.50;37.80;;;;;;10356270;28;20226;-78
2021/08/12 03:58:36;;;;;;;2.90;2.70;;;21.50;37.80;;;;;;10360320;28;20252;-79
2021/08/12 04:03:39;;;;;;;2.87;2.67;;;21.50;37.80;;;;;;10352669;28;20231;-79
2021/08/12 04:08:44;;;;;;;3.67;3.20;;;21.50;37.80;;;;;;10358550;28;20234;-79
2021/08/12 04:13:47;;;;;;;3.27;3.07;;;21.50;37.80;;;;;;10347433;28;20231;-79
2021/08/12 04:18:50;;;;;;;3.30;3.03;;;21.50;37.80;;;;;;10339391;28;20611;-79
2021/08/12 04:23:55;;;;;;;5.37;3.47;;;21.40;37.70;;;;;;10350159;28;20231;-78
2021/08/12 04:28:58;;;;;;;3.67;3.37;;;21.40;37.70;;;;;;10348082;28;20230;-79
2021/08/12 04:34:03;;;;;;;4.67;3.20;;;21.30;37.60;;;;;;10350678;28;20231;-78
2021/08/12 04:39:07;;;;;;;3.53;2.80;;;21.20;37.60;;;;;;10351207;28;20237;-79
2021/08/12 04:44:10;;;;;;;3.50;3.20;;;21.20;37.60;;;;;;10348068;28;20898;-79
2021/08/12 04:49:14;;;;;;;3.37;3.07;;;21.10;37.50;;;;;;10340749;28;20234;-79
2021/08/12 04:54:18;;;;;;;4.47;3.17;;;21.10;37.50;;;;;;10350224;28;20727;-79
2021/08/12 04:59:22;;;;;;;3.20;3.00;;;21.10;38.30;;;;;;10344372;28;20242;-79
2021/08/12 05:04:25;;;;;;;3.90;3.60;;;21.00;38.00;;;;;;10345057;28;20248;-79
2021/08/12 05:09:29;;;;;;;3.70;3.40;;;21.00;38.30;;;;;;10343619;28;20242;-79
2021/08/12 05:14:33;;;;;;;4.70;3.23;;;20.90;38.70;;;;;;10345740;28;20234;-79
2021/08/12 05:19:36;;;;;;;3.67;3.20;;;20.90;38.40;;;;;;10338598;28;20238;-80
2021/08/12 05:24:41;;;;;;;4.63;3.30;;;20.90;38.90;;;;;;10349896;28;20234;-79
2021/08/12 05:29:44;;;;;;;3.47;3.10;;;20.90;39.40;;;;;;10342051;28;20238;-79
2021/08/12 05:34:48;;;;;;;3.87;3.40;;;20.90;39.00;;;;;;10359567;28;20228;-79
2021/08/12 05:39:52;;;;;;;4.57;3.40;;;21.00;39.30;;;;;;10352012;28;20231;-80
2021/08/12 05:44:55;;;;;;;6.57;3.40;;;21.00;39.80;;;;;;10346499;28;20590;-79
2021/08/12 05:49:59;;;;;;;7.33;4.10;;;21.10;39.70;;;;;;10356528;28;20226;-79
2021/08/12 05:55:04;;;;;;;6.37;3.93;;;21.10;40.00;;;;;;10361099;28;20218;-79
2021/08/12 06:00:08;;;;;;;5.63;4.10;;;21.20;40.80;;;;;;10352032;28;20260;-79
2021/08/12 06:05:11;;;;;;;5.33;4.60;;;21.30;40.60;;;;;;10347621;28;20702;-79
2021/08/12 06:10:19;;;;;;;7.53;4.37;;;21.40;40.70;;;;;;10357447;28;20746;-79
2021/08/12 06:15:23;;;;;;;7.00;4.70;;;21.40;41.20;;;;;;10351932;28;20234;-79
2021/08/12 06:20:26;;;;;;;5.47;4.90;;;21.50;40.60;;;;;;10357636;28;20226;-79
2021/08/12 06:25:30;;;;;;;5.43;4.70;;;21.60;40.80;;;;;;10359359;28;20234;-79
2021/08/12 06:30:34;;;;;;;5.43;4.93;;;21.70;41.60;;;;;;10374943;28;20618;-78
2021/08/12 06:35:38;;;;;;;5.07;4.67;;;21.80;41.20;;;;;;10350680;28;20241;-78
2021/08/12 06:40:43;;;;;;;5.37;4.73;;;21.90;41.30;;;;;;10363164;28;20231;-78
2021/08/12 06:45:47;;;;;;;5.93;5.27;;;22.00;42.10;;;;;;10356266;28;20731;-77
2021/08/12 06:50:50;;;;;;;5.47;4.90;;;22.20;41.60;;;;;;10358879;28;20226;-76
2021/08/12 06:55:55;;;;;;;5.87;4.60;;;22.30;41.70;;;;;;10353393;28;20246;-77
2021/08/12 07:00:58;;;;;;;5.10;4.60;;;22.40;42.00;;;;;;10353197;28;20231;-77
2021/08/12 07:06:04;;;;;;;4.90;4.50;;;22.60;41.80;;;;;;10353709;28;20245;-76
2021/08/12 07:11:08;;;;;;;5.00;4.00;;;22.70;41.00;;;;;;10347536;28;20238;-76
2021/08/12 07:16:14;;;;;;;4.83;4.40;;;22.80;41.40;;;;;;10346702;28;20305;-75
2021/08/12 07:21:19;;;;;;;4.87;4.47;;;22.90;41.00;;;;;;10350969;28;20262;-76
2021/08/12 07:26:23;;;;;;;5.07;4.57;;;23.10;41.30;;;;;;10357135;28;20238;-80
2021/08/12 07:31:27;;;;;;;5.90;4.57;;;23.30;41.60;;;;;;10356431;28;20242;-77
2021/08/12 07:36:30;;;;;;;4.77;4.37;;;23.50;41.40;;;;;;10347583;28;20226;-78
2021/08/12 07:41:35;;;;;;;4.93;4.53;;;23.60;41.20;;;;;;10342158;28;20238;-77
2021/08/12 07:46:38;;;;;;;7.23;4.50;;;23.80;41.60;;;;;;10346623;28;20245;-77
2021/08/12 07:51:42;;;;;;;4.87;4.47;;;23.90;41.20;;;;;;10342546;28;20674;-76
2021/08/12 07:56:48;;;;;;;5.20;4.70;;;24.10;41.10;;;;;;10348088;28;20235;-77
2021/08/12 08:01:53;;;;;;;4.87;4.47;;;24.30;41.10;;;;;;10352461;28;20256;-78
2021/08/12 08:06:56;;;;;;;6.00;4.70;;;24.50;41.00;;;;;;10345966;28;20231;-77
2021/08/12 08:12:02;;;;;;;4.83;4.43;;;24.80;41.60;;;;;;10344071;28;20236;-77
2021/08/12 08:17:05;;;;;;;4.90;4.33;;;25.10;41.00;;;;;;10342918;28;20227;-78
2021/08/12 08:22:08;;;;;;;5.13;4.63;;;25.30;41.10;;;;;;10358247;28;20607;-77
2021/08/12 08:27:13;;;;;;;5.33;4.83;;;25.60;41.10;;;;;;10348314;28;20956;-78
2021/08/12 08:32:17;;;;;;;7.17;4.87;;;25.80;41.40;;;;;;10338444;28;20715;-75
2021/08/12 08:37:20;;;;;;;4.90;4.50;;;26.00;40.30;;;;;;10335828;28;20966;-75
2021/08/12 08:42:25;;;;;;;4.80;4.40;;;26.20;40.00;;;;;;10336170;28;20262;-75
2021/08/12 08:47:29;;;;;;;4.93;4.50;;;26.40;39.70;;;;;;10333710;28;20230;-75
2021/08/12 08:52:32;;;;;;;5.20;4.80;;;26.60;40.00;;;;;;10334852;28;20239;-75
2021/08/12 08:57:38;;;;;;;5.00;4.60;;;27.00;39.80;;;;;;10340646;28;20234;-75
2021/08/12 09:02:41;;;;;;;5.00;4.60;;;27.20;39.10;;;;;;10340187;28;20238;-75
2021/08/12 09:07:45;;;;;;;5.70;4.60;;;27.40;39.20;;;;;;10333188;28;20317;-75
2021/08/12 09:12:50;;;;;;;5.67;5.17;;;27.60;38.80;;;;;;10338160;28;20238;-77
2021/08/12 09:17:57;;;;;;;6.80;4.80;;;27.90;38.00;;;;;;10340909;28;20321;-77
2021/08/12 09:23:09;;;;;;;5.10;4.60;;;28.10;38.00;;;;;;10339152;28;20726;-77
2021/08/12 09:28:26;;;;;;;5.97;4.37;;;28.30;37.20;;;;;;10339855;28;20254;-77
2021/08/12 09:33:31;;;;;;;4.63;4.23;;;28.50;37.40;;;;;;10336388;28;20236;-76
2021/08/12 09:38:34;;;;;;;4.80;4.40;;;28.70;36.70;;;;;;10336079;28;20257;-75
2021/08/12 09:43:42;;;;;;;5.03;4.60;;;29.00;36.50;;;;;;10316939;28;20617;-75
2021/08/12 09:48:57;;;;;;;4.90;4.50;;;29.30;35.40;;;;;;10337011;28;20322;-77
2021/08/12 09:54:06;;;;;;;5.17;4.27;;;29.50;34.50;;;;;;10339532;28;20740;-76
2021/08/12 09:59:10;;;;;;;4.80;4.50;;;29.80;33.10;;;;;;10349475;28;20245;-74
2021/08/12 10:04:23;;;;;;;5.03;4.60;;;30.00;33.90;;;;;;10347217;28;20230;-74
2021/08/12 10:09:39;;;;;;;4.97;4.53;;;30.20;33.30;;;;;;10352002;28;20258;-74
2021/08/12 10:14:44;;;;;;;5.33;4.80;;;30.40;33.80;;;;;;10343797;28;20226;-74
2021/08/12 10:19:47;;;;;;;5.37;4.87;;;30.60;32.90;;;;;;10342838;28;20227;-74
2021/08/12 10:24:54;;;;;;;5.77;5.27;;;30.70;32.90;;;;;;10343735;28;20232;-77
2021/08/12 10:30:00;;;;;;;5.37;4.87;;;30.90;32.10;;;;;;10344755;28;20233;-77
2021/08/12 10:35:04;;;;;;;5.50;5.10;;;31.00;31.90;;;;;;10338196;28;20234;-76
2021/08/12 10:40:12;;;;;;;5.90;5.40;;;31.10;31.70;;;;;;10348635;28;20280;-75
2021/08/12 10:45:20;;;;;;;5.23;4.80;;;31.20;30.60;;;;;;10343481;28;20340;-75
2021/08/12 10:50:35;;;;;;;6.00;5.50;;;31.30;30.00;;;;;;10348114;28;20301;-76
2021/08/12 10:55:59;;;;;;;5.63;5.10;;;31.40;30.40;;;;;;10349941;28;20235;-76
2021/08/12 11:01:06;;;;;;;5.57;5.07;;;31.60;31.30;;;;;;10350961;28;20237;-77
2021/08/12 11:06:16;;;;;;;5.40;5.00;;;31.70;30.00;;;;;;10365357;28;20280;-75
2021/08/12 11:12:01;;;;;;;5.57;5.17;;;31.70;28.90;;;;;;10342126;28;20953;-75
2021/08/12 11:17:06;;;;;;;5.10;4.70;;;31.80;29.60;;;;;;10340946;28;20234;-75
2021/08/12 11:22:35;;;;;;;6.13;5.63;;;31.90;28.50;;;;;;10341286;28;20235;-75
2021/08/12 11:27:43;;;;;;;5.57;5.17;;;32.00;28.00;;;;;;10350104;28;20603;-76
2021/08/12 11:33:20;;;;;;;6.23;5.73;;;32.00;26.70;;;;;;10344760;28;20292;-75
2021/08/12 11:38:25;;;;;;;5.77;5.13;;;32.00;27.50;;;;;;10344670;28;20269;-75
2021/08/12 11:43:28;;;;;;;5.57;5.17;;;32.00;27.60;;;;;;10343247;28;20245;-76
2021/08/12 11:48:34;;;;;;;6.00;5.43;;;32.10;27.80;;;;;;10346466;28;20235;-75
2021/08/12 11:53:41;;;;;;;5.90;5.40;;;32.10;27.30;;;;;;10340855;28;20234;-75
2021/08/12 11:58:46;;;;;;;5.87;5.17;;;32.20;26.70;;;;;;10337617;28;20233;-75
2021/08/12 12:03:51;;;;;;;6.20;5.43;;;32.30;27.10;;;;;;10337999;28;20261;-75
2021/08/12 12:08:55;;;;;;;5.73;5.33;;;32.40;26.90;;;;;;10339617;28;20223;-76
2021/08/12 12:14:02;;;;;;;5.97;5.47;;;32.50;26.50;;;;;;10343504;28;20237;-78
2021/08/12 12:19:08;;;;;;;6.13;5.63;;;32.50;26.10;;;;;;10341491;28;20227;-76
2021/08/12 12:24:12;;;;;;;6.57;5.60;;;32.50;25.90;;;;;;10344156;28;20242;-78
2021/08/12 12:29:21;;;;;;;6.20;5.70;;;32.60;26.40;;;;;;10341437;28;20234;-77
2021/08/12 12:34:24;;;;;;;7.37;5.80;;;32.50;25.60;;;;;;10341803;28;20233;-78
2021/08/12 12:39:29;;;;;;;6.20;5.70;;;32.50;26.40;;;;;;10334575;28;20238;-78
2021/08/12 12:44:36;;;;;;;6.20;5.70;;;32.60;26.00;;;;;;10348010;28;20293;-79
2021/08/12 12:49:39;;;;;;;5.70;5.30;;;32.70;26.50;;;;;;10341183;28;20242;-75
2021/08/12 12:54:44;;;;;;;6.00;5.50;;;32.70;26.30;;;;;;10337480;28;20230;-76
2021/08/12 12:59:52;;;;;;;6.37;5.87;;;32.70;25.70;;;;;;10337831;28;20234;-75
2021/08/12 13:04:59;;;;;;;6.13;5.63;;;32.70;25.10;;;;;;10337333;28;20230;-76
2021/08/12 13:10:18;;;;;;;6.13;5.63;;;32.80;25.10;;;;;;10340061;28;20230;-77
2021/08/12 13:15:22;;;;;;;12.00;6.47;;;32.70;25.50;;;;;;10346225;28;20238;-77
2021/08/12 13:20:26;;;;;;;6.17;5.67;;;32.70;25.20;;;;;;10337098;28;20239;-76
2021/08/12 13:25:31;;;;;;;6.10;5.70;;;32.80;25.60;;;;;;10344011;28;20230;-77
2021/08/12 13:30:37;;;;;;;6.17;5.67;;;32.80;25.10;;;;;;10344818;28;20257;-76
2021/08/12 13:35:40;;;;;;;6.37;5.87;;;32.80;25.00;;;;;;10346999;28;20741;-76
2021/08/12 13:40:45;;;;;;;5.97;5.50;;;32.80;25.30;;;;;;10344389;28;20230;-76
2021/08/12 13:45:48;;;;;;;6.87;6.27;;;32.90;25.00;;;;;;10342789;28;20229;-76
2021/08/12 13:50:51;;;;;;;6.83;6.23;;;32.90;24.80;;;;;;10335793;28;20231;-76
2021/08/12 13:55:56;;;;;;;6.63;6.03;;;32.90;24.90;;;;;;10340523;28;20226;-76
2021/08/12 14:00:59;;;;;;;6.27;5.77;;;32.90;24.50;;;;;;10348805;28;20238;-78
2021/08/12 14:06:03;;;;;;;6.53;6.03;;;32.90;24.80;;;;;;10346837;28;20237;-78
2021/08/12 14:11:07;;;;;;;6.23;5.53;;;32.90;24.60;;;;;;10342137;28;20731;-77
2021/08/12 14:16:10;;;;;;;6.47;5.87;;;32.90;24.20;;;;;;10345714;28;20234;-76
2021/08/12 14:21:16;;;;;;;6.57;6.00;;;32.90;24.50;;;;;;10346143;28;20720;-76
2021/08/12 14:26:20;;;;;;;6.60;6.00;;;32.90;24.40;;;;;;10342211;28;20242;-74
2021/08/12 14:31:23;;;;;;;6.63;6.03;;;32.90;24.10;;;;;;10344826;28;20253;-75
2021/08/12 14:36:27;;;;;;;7.37;5.87;;;32.90;24.40;;;;;;10336338;28;20237;-75
2021/08/12 14:41:32;;;;;;;6.57;6.07;;;32.80;24.40;;;;;;10340824;28;20251;-76
2021/08/12 14:46:35;;;;;;;6.47;5.87;;;32.90;24.30;;;;;;10335833;28;20239;-75
2021/08/12 14:51:39;;;;;;;6.97;6.30;;;32.90;24.20;;;;;;10338663;28;20605;-76
2021/08/12 14:56:43;;;;;;;6.70;6.10;;;32.90;24.20;;;;;;10336791;28;20222;-76
2021/08/12 15:01:49;;;;;;;6.67;6.07;;;33.00;23.70;;;;;;10335847;28;20232;-76
2021/08/12 15:06:53;;;;;;;7.07;6.47;;;33.00;23.90;;;;;;10340870;28;20790;-75
2021/08/12 15:11:57;;;;;;;6.83;6.23;;;33.00;23.70;;;;;;10340531;28;20250;-76
2021/08/12 15:17:01;;;;;;;7.03;6.43;;;33.00;23.60;;;;;;10344262;28;20233;-75
2021/08/12 15:22:04;;;;;;;7.33;6.63;;;32.90;23.60;;;;;;10345705;28;20234;-75
2021/08/12 15:27:09;;;;;;;7.20;6.47;;;32.90;23.70;;;;;;10340171;28;20230;-75
2021/08/12 15:32:12;;;;;;;7.07;6.47;;;32.90;23.50;;;;;;10339127;28;20243;-75
2021/08/12 15:37:15;;;;;;;6.67;6.17;;;32.90;23.70;;;;;;10341649;28;20609;-76
2021/08/12 15:42:20;;;;;;;9.93;6.27;;;32.90;23.60;;;;;;10345757;28;20235;-75
2021/08/12 15:47:23;;;;;;;6.73;6.20;;;32.90;23.20;;;;;;10343588;28;20235;-76
2021/08/12 15:52:26;;;;;;;7.53;6.83;;;32.90;23.30;;;;;;10348376;28;20240;-77
2021/08/12 15:57:31;;;;;;;6.77;6.17;;;32.90;23.60;;;;;;10350268;28;20627;-76
2021/08/12 16:02:36;;;;;;;7.30;6.60;;;33.00;23.20;;;;;;10346738;28;20935;-76
2021/08/12 16:07:39;;;;;;;6.83;6.20;;;33.10;23.50;;;;;;10351529;28;20322;-76
2021/08/12 16:12:44;;;;;;;6.93;6.30;;;33.10;23.60;;;;;;10346405;28;20234;-77
2021/08/12 16:17:51;;;;;;;7.10;6.50;;;33.10;23.10;;;;;;10344489;28;20231;-76
2021/08/12 16:22:56;;;;;;;7.47;6.77;;;33.20;23.30;;;;;;10348751;28;20237;-78
2021/08/12 16:28:00;;;;;;;6.83;6.33;;;33.30;22.90;;;;;;10350357;28;20226;-78
2021/08/12 16:33:04;;;;;;;6.90;6.30;;;33.30;22.80;;;;;;10353676;28;20238;-77
2021/08/12 16:38:07;;;;;;;7.13;6.53;;;33.40;23.30;;;;;;10352147;28;20230;-77
2021/08/12 16:43:12;;;;;;;6.73;6.13;;;33.40;22.90;;;;;;10349197;28;20239;-78
2021/08/12 16:48:16;;;;;;;6.87;6.33;;;33.40;22.90;;;;;;10349853;28;20234;-77
2021/08/12 16:53:19;;;;;;;6.87;6.37;;;33.40;22.90;;;;;;10360571;28;20238;-77
2021/08/12 16:58:23;;;;;;;7.23;6.60;;;33.40;22.90;;;;;;10345943;28;20238;-77
2021/08/12 17:03:26;;;;;;;6.73;6.13;;;33.40;22.90;;;;;;10354496;28;20887;-77
2021/08/12 17:08:51;;;;;;;6.67;6.17;;;33.40;23.10;;;;;;10341316;28;20250;-77
2021/08/12 17:13:58;;;;;;;7.03;6.37;;;33.40;24.00;;;;;;10351566;28;20853;-77
2021/08/12 17:19:01;;;;;;;7.50;6.70;;;33.40;24.10;;;;;;10355431;28;20234;-77
2021/08/12 17:24:05;;;;;;;6.63;6.10;;;33.40;24.30;;;;;;10352809;28;20254;-78
2021/08/12 17:29:10;;;;;;;7.37;6.77;;;33.40;24.40;;;;;;10347550;28;20238;-78
2021/08/12 17:34:14;;;;;;;6.93;6.33;;;33.40;24.40;;;;;;10342339;28;20238;-77
2021/08/12 17:39:17;;;;;;;7.53;6.93;;;33.30;24.30;;;;;;10353473;28;20234;-77
2021/08/12 17:44:21;;;;;;;6.90;6.30;;;33.20;24.30;;;;;;10355713;28;20606;-77
2021/08/12 17:49:36;;;;;;;7.13;6.53;;;33.10;24.50;;;;;;10347465;28;20265;-77
2021/08/12 17:54:40;;;;;;;7.00;6.50;;;33.00;24.70;;;;;;10356435;28;21115;-78
2021/08/12 17:59:44;;;;;;;7.37;6.67;;;32.90;24.80;;;;;;10344489;28;20242;-77
2021/08/12 18:04:48;;;;;;;7.10;6.53;;;32.70;24.70;;;;;;10350508;28;20987;-77
2021/08/12 18:09:51;;;;;;;6.73;6.17;;;32.60;24.90;;;;;;10345041;28;20241;-77
2021/08/12 18:14:56;;;;;;;6.47;6.00;;;32.40;24.90;;;;;;10351699;28;20234;-77
2021/08/12 18:20:00;;;;;;;6.97;6.47;;;32.20;25.30;;;;;;10348620;28;20667;-77
2021/08/12 18:25:03;;;;;;;7.20;6.60;;;32.10;25.40;;;;;;10345814;28;20230;-77
2021/08/12 18:30:10;;;;;;;7.20;6.47;;;31.90;25.60;;;;;;10348454;28;20240;-78
2021/08/12 18:35:13;;;;;;;8.13;6.77;;;31.70;25.90;;;;;;10355776;28;20221;-78
2021/08/12 18:40:17;;;;;;;9.43;6.77;;;31.60;26.00;;;;;;10362792;28;20254;-78
2021/08/12 18:45:21;;;;;;;7.43;6.73;;;31.40;26.20;;;;;;10347491;28;20241;-78
2021/08/12 18:50:24;;;;;;;8.77;7.30;;;31.20;26.40;;;;;;10347736;28;20234;-78
2021/08/12 18:55:28;;;;;;;7.67;6.83;;;31.00;26.50;;;;;;10362895;28;20235;-77
2021/08/12 19:00:33;;;;;;;7.50;6.73;;;30.90;26.80;;;;;;10369197;28;20321;-77
2021/08/12 19:05:36;;;;;;;7.57;6.80;;;30.70;27.00;;;;;;10358928;28;20234;-77
2021/08/12 19:10:40;;;;;;;9.30;7.23;;;30.60;26.90;;;;;;10368481;28;20317;-77
2021/08/12 19:15:45;;;;;;;8.00;7.27;;;30.50;27.00;;;;;;10364649;28;20226;-77
2021/08/12 19:20:48;;;;;;;13.70;7.87;;;30.30;27.20;;;;;;10352061;28;20327;-78
2021/08/12 19:25:51;;;;;;;7.43;6.83;;;30.00;27.50;;;;;;10343615;28;20230;-78
2021/08/12 19:30:56;;;;;;;8.20;7.30;;;29.80;27.50;;;;;;10358928;28;20235;-78
2021/08/12 19:35:59;;;;;;;9.73;7.10;;;29.60;28.10;;;;;;10352916;28;20416;-78
2021/08/12 19:41:03;;;;;;;10.30;8.80;;;29.40;28.10;;;;;;10351470;28;20230;-78
2021/08/12 19:46:08;;;;;;;8.97;7.73;;;29.20;28.30;;;;;;10346055;28;20235;-78
2021/08/12 19:51:13;;;;;;;10.47;7.90;;;29.10;28.80;;;;;;10350824;28;20650;-78
2021/08/12 19:56:16;;;;;;;12.30;7.30;;;28.90;29.20;;;;;;10353813;28;20615;-78
2021/08/12 20:01:22;;;;;;;10.27;7.97;;;28.80;29.00;;;;;;10337202;28;20312;-78
2021/08/12 20:06:26;;;;;;;8.37;7.57;;;28.70;29.60;;;;;;10345146;28;20234;-77
2021/08/12 20:11:29;;;;;;;9.67;8.57;;;28.60;29.20;;;;;;10353546;28;20741;-77
2021/08/12 20:16:33;;;;;;;8.40;7.60;;;28.50;29.40;;;;;;10349116;28;20324;-77
2021/08/12 20:21:37;;;;;;;8.93;7.77;;;28.30;29.70;;;;;;10355539;28;20234;-77
2021/08/12 20:26:40;;;;;;;8.40;7.60;;;28.10;29.60;;;;;;10348980;28;20235;-78
2021/08/12 20:31:45;;;;;;;11.47;8.37;;;28.00;29.80;;;;;;10345496;28;20698;-78
2021/08/12 20:36:48;;;;;;;8.93;7.80;;;27.90;30.10;;;;;;10346666;28;20233;-78
2021/08/12 20:41:53;;;;;;;8.90;7.93;;;27.80;30.10;;;;;;10344459;28;20227;-78
2021/08/12 20:46:59;;;;;;;9.00;7.93;;;27.60;30.00;;;;;;10350181;28;20256;-77
2021/08/12 20:52:02;;;;;;;7.93;7.13;;;27.60;30.40;;;;;;10348613;28;20235;-77
2021/08/12 20:57:06;;;;;;;7.63;7.03;;;27.50;30.00;;;;;;10359839;28;20230;-77
2021/08/12 21:02:12;;;;;;;9.17;8.27;;;27.50;30.00;;;;;;10351168;28;20232;-77
2021/08/12 21:07:16;;;;;;;8.90;8.10;;;27.40;30.90;;;;;;10350366;28;20237;-77
2021/08/12 21:12:20;;;;;;;9.07;8.17;;;27.40;30.50;;;;;;10350451;28;20262;-76
2021/08/12 21:17:24;;;;;;;9.23;8.43;;;27.10;30.80;;;;;;10347033;28;20230;-77
2021/08/12 21:22:28;;;;;;;9.77;8.77;;;26.90;31.70;;;;;;10351202;28;20265;-77
2021/08/12 21:27:31;;;;;;;9.10;8.20;;;26.70;31.50;;;;;;10349182;28;20230;-77
2021/08/12 21:32:37;;;;;;;8.17;7.47;;;26.40;31.90;;;;;;10353260;28;20242;-77
2021/08/12 21:37:40;;;;;;;8.27;7.47;;;26.30;32.90;;;;;;10351748;28;21129;-77
2021/08/12 21:42:44;;;;;;;9.43;8.53;;;26.20;32.50;;;;;;10345901;28;20230;-77
2021/08/12 21:47:48;;;;;;;9.40;8.57;;;26.20;32.90;;;;;;10352022;28;20670;-77
2021/08/12 21:52:52;;;;;;;8.80;8.00;;;26.20;33.70;;;;;;10349990;28;20237;-76
2021/08/12 21:57:55;;;;;;;8.70;7.97;;;26.00;33.00;;;;;;10354733;28;20596;-76
2021/08/12 22:03:00;;;;;;;8.23;7.43;;;25.90;33.30;;;;;;10358294;28;20230;-77
2021/08/12 22:08:04;;;;;;;8.83;8.13;;;25.80;34.70;;;;;;10358693;28;20253;-76
2021/08/12 22:13:07;;;;;;;9.23;8.03;;;25.70;33.80;;;;;;10359749;28;20280;-77
2021/08/12 22:18:16;;;;;;;9.00;8.10;;;25.60;34.00;;;;;;10358714;28;20238;-76
2021/08/12 22:23:19;;;;;;;9.00;8.20;;;25.60;34.70;;;;;;10353276;28;20242;-76
2021/08/12 22:28:24;;;;;;;8.50;7.60;;;25.50;34.60;;;;;;10352662;28;20249;-77
2021/08/12 22:33:28;;;;;;;9.13;8.23;;;25.50;34.90;;;;;;10363046;28;20317;-77
2021/08/12 22:38:32;;;;;;;8.77;7.57;;;25.50;35.50;;;;;;10359497;28;20645;-76
2021/08/12 22:43:38;;;;;;;8.33;7.63;;;25.40;34.80;;;;;;10360138;28;20240;-76
2021/08/12 22:48:42;;;;;;;8.37;7.57;;;25.40;35.00;;;;;;10359791;28;20233;-77
2021/08/12 22:53:49;;;;;;;9.30;7.60;;;25.30;35.70;;;;;;10364161;28;20238;-77
2021/08/12 22:58:52;;;;;;;10.07;7.80;;;25.20;35.40;;;;;;10361280;28;20234;-76
2021/08/12 23:03:56;;;;;;;8.33;7.60;;;25.20;35.70;;;;;;10365428;28;20234;-77
2021/08/12 23:09:00;;;;;;;9.83;7.13;;;25.30;36.30;;;;;;10362093;28;20230;-77
2021/08/12 23:14:03;;;;;;;8.03;7.33;;;25.20;35.60;;;;;;10366568;28;20233;-77
2021/08/12 23:19:08;;;;;;;8.50;7.60;;;25.30;36.00;;;;;;10356462;28;20231;-77
2021/08/12 23:24:11;;;;;;;8.63;7.83;;;25.20;36.40;;;;;;10362849;28;20241;-77
2021/08/12 23:29:14;;;;;;;9.23;8.23;;;25.20;36.00;;;;;;10363642;28;20229;-77
2021/08/12 23:34:19;;;;;;;7.47;6.77;;;25.10;36.20;;;;;;10366956;28;20238;-77
2021/08/12 23:39:22;;;;;;;8.47;7.67;;;25.10;36.60;;;;;;10360699;28;20226;-77
2021/08/12 23:44:26;;;;;;;7.93;7.27;;;25.10;36.20;;;;;;10362784;28;20218;-77
2021/08/12 23:49:30;;;;;;;8.70;7.90;;;25.00;36.40;;;;;;10358373;28;20236;-77
2021/08/12 23:54:33;;;;;;;9.10;8.30;;;25.00;36.90;;;;;;10362359;28;20253;-77
2021/08/12 23:59:37;;;;;;;8.73;7.83;;;25.00;36.60;;;;;;10363685;28;20241;-77
